Time;durP1;ratioP1;P1;durP2;ratioP2;P2;SDS_P1;SDS_P2;PMS_P1;PMS_P2;Temp;Humidity;BMP_temperature;BMP_pressure;BME280_temperature;BME280_humidity;BME280_pressure;Samples;Min_cycle;Max_cycle;Signal;HPM_P1;HPM_P2
2023/09/21 00:01:04;;;;;;;;;;;;;;;13.76;86.10;100234.98;107511;277;105658;-54
2023/09/21 00:03:40;;;;;;;;;;;;;;;13.68;86.12;100236.93;107515;277;114326;-54
2023/09/21 00:06:12;;;;;;;;;;;;;;;13.64;86.28;100234.48;107590;277;96313;-55
2023/09/21 00:08:53;;;;;;;;;;;;;;;13.65;86.31;100234.02;107549;277;97141;-55
2023/09/21 00:11:26;;;;;;;;;;;;;;;13.62;86.15;100236.91;107747;277;121984;-58
2023/09/21 00:14:01;;;;;;;;;;;;;;;13.59;86.15;100234.91;108188;277;103511;-58
2023/09/21 00:16:36;;;;;;;;;;;;;;;13.57;86.29;100233.53;107987;277;112678;-56
2023/09/21 00:19:13;;;;;;;;;;;;;;;13.58;86.24;100229.69;107561;277;96827;-55
2023/09/21 00:21:53;;;;;;;;;;;;;;;13.60;86.74;100224.62;107743;277;97166;-59
2023/09/21 00:24:24;;;;;;;;;;;;;;;13.66;86.67;100231.35;108070;277;120448;-59
2023/09/21 00:26:59;;;;;;;;;;;;;;;13.67;86.79;100230.79;107818;277;104225;-57
2023/09/21 00:29:35;;;;;;;;;;;;;;;13.66;86.81;100229.38;107469;277;114589;-57
2023/09/21 00:32:09;;;;;;;;;;;;;;;13.64;86.79;100229.43;107482;277;96373;-58
2023/09/21 00:34:46;;;;;;;;;;;;;;;13.63;86.73;100229.76;107481;277;97132;-57
2023/09/21 00:37:25;;;;;;;;;;;;;;;13.60;86.69;100228.27;107500;277;120359;-58
2023/09/21 00:40:05;;;;;;;;;;;;;;;13.61;86.80;100225.64;107444;277;105042;-57
2023/09/21 00:42:42;;;;;;;;;;;;;;;13.61;86.71;100223.84;107480;277;114956;-55
2023/09/21 00:45:14;;;;;;;;;;;;;;;13.58;86.94;100224.98;107520;277;96876;-55
2023/09/21 00:47:52;;;;;;;;;;;;;;;13.57;86.85;100221.75;107558;277;96201;-54
2023/09/21 00:50:30;;;;;;;;;;;;;;;13.59;86.84;100222.52;107499;277;121101;-54
2023/09/21 00:53:06;;;;;;;;;;;;;;;13.60;86.92;100216.57;107626;277;106264;-55
2023/09/21 00:55:39;;;;;;;;;;;;;;;13.60;86.85;100215.95;107638;277;113099;-56
2023/09/21 00:58:17;;;;;;;;;;;;;;;13.61;87.07;100212.61;107658;277;94469;-58
2023/09/21 01:00:56;;;;;;;;;;;;;;;13.61;87.10;100218.79;107658;277;97405;-59
2023/09/21 01:03:29;;;;;;;;;;;;;;;13.60;87.03;100219.63;108046;277;119430;-59
2023/09/21 01:06:02;;;;;;;;;;;;;;;13.57;87.17;100221.20;108142;277;104398;-54
2023/09/21 01:08:37;;;;;;;;;;;;;;;13.60;87.20;100218.91;107597;277;114747;-53
2023/09/21 01:11:10;;;;;;;;;;;;;;;13.63;87.12;100222.11;107567;277;95685;-57
2023/09/21 01:13:47;;;;;;;;;;;;;;;13.64;87.22;100227.55;107582;277;96912;-57
2023/09/21 01:16:23;;;;;;;;;;;;;;;13.70;87.44;100225.90;107628;277;120398;-59
2023/09/21 01:19:03;;;;;;;;;;;;;;;13.72;87.48;100225.23;108161;277;104487;-59
2023/09/21 01:21:42;;;;;;;;;;;;;;;13.81;87.69;100222.90;108181;277;112651;-59
2023/09/21 01:24:23;;;;;;;;;;;;;;;13.88;87.57;100223.83;108119;277;95174;-59
2023/09/21 01:26:59;;;;;;;;;;;;;;;13.90;87.72;100226.08;107848;277;96527;-56
2023/09/21 01:29:35;;;;;;;;;;;;;;;13.94;87.64;100222.85;107626;277;120880;-56
2023/09/21 01:32:07;;;;;;;;;;;;;;;13.94;87.59;100224.23;107612;277;105271;-56
2023/09/21 01:34:47;;;;;;;;;;;;;;;13.94;87.66;100225.85;107603;277;113145;-55
2023/09/21 01:37:26;;;;;;;;;;;;;;;13.94;87.50;100228.23;107618;277;97240;-56
2023/09/21 01:40:09;;;;;;;;;;;;;;;13.92;87.70;100228.20;107614;277;96700;-56
2023/09/21 01:42:48;;;;;;;;;;;;;;;13.91;87.85;100226.33;107567;277;120785;-57
2023/09/21 01:45:20;;;;;;;;;;;;;;;13.98;87.89;100228.92;107645;277;105376;-56
2023/09/21 01:47:54;;;;;;;;;;;;;;;14.05;87.77;100227.39;107637;277;114727;-54
2023/09/21 01:50:31;;;;;;;;;;;;;;;14.03;87.91;100222.42;107598;277;97456;-55
2023/09/21 01:53:09;;;;;;;;;;;;;;;14.04;87.83;100219.16;107661;277;96482;-56
2023/09/21 01:55:44;;;;;;;;;;;;;;;14.07;87.87;100221.86;107655;277;120298;-56
2023/09/21 01:58:19;;;;;;;;;;;;;;;14.07;87.66;100217.98;107597;277;105975;-57
2023/09/21 02:00:55;;;;;;;;;;;;;;;14.07;87.78;100217.05;107548;277;113030;-57
2023/09/21 02:03:36;;;;;;;;;;;;;;;14.10;87.74;100218.30;107566;277;96749;-57
2023/09/21 02:06:12;;;;;;;;;;;;;;;14.09;87.66;100214.13;107704;277;96501;-59
2023/09/21 02:08:49;;;;;;;;;;;;;;;14.07;87.64;100212.96;108220;277;118499;-59
2023/09/21 02:11:22;;;;;;;;;;;;;;;14.03;87.60;100214.35;108366;277;106117;-58
2023/09/21 02:14:01;;;;;;;;;;;;;;;14.00;87.64;100210.53;107719;277;114172;-58
2023/09/21 02:16:37;;;;;;;;;;;;;;;14.02;87.71;100209.85;107754;277;97066;-53
2023/09/21 02:19:16;;;;;;;;;;;;;;;14.01;87.61;100212.95;107486;277;96885;-53
2023/09/21 02:21:52;;;;;;;;;;;;;;;13.99;87.65;100213.75;107534;277;119368;-54
2023/09/21 02:24:21;;;;;;;;;;;;;;;13.98;87.48;100221.27;107576;277;105787;-54
2023/09/21 02:27:00;;;;;;;;;;;;;;;13.99;87.65;100216.34;107502;277;115973;-56
2023/09/21 02:29:40;;;;;;;;;;;;;;;13.98;87.58;100216.06;107509;277;96197;-55
2023/09/21 02:32:18;;;;;;;;;;;;;;;13.99;87.72;100214.88;107719;277;96428;-59
2023/09/21 02:34:52;;;;;;;;;;;;;;;13.96;88.10;100212.22;107767;277;120580;-59
2023/09/21 02:37:25;;;;;;;;;;;;;;;13.95;88.05;100213.23;107906;277;104969;-59
2023/09/21 02:39:58;;;;;;;;;;;;;;;13.95;88.00;100210.50;107821;277;114282;-58
2023/09/21 02:42:32;;;;;;;;;;;;;;;13.96;87.85;100209.09;107553;277;96375;-57
2023/09/21 02:45:09;;;;;;;;;;;;;;;13.99;87.77;100207.11;107482;277;97851;-57
2023/09/21 02:47:47;;;;;;;;;;;;;;;13.98;87.92;100206.54;107441;277;121049;-55
2023/09/21 02:50:21;;;;;;;;;;;;;;;14.01;87.86;100202.46;107483;277;104694;-55
2023/09/21 02:52:54;;;;;;;;;;;;;;;14.03;87.87;100202.08;107459;277;113928;-55
2023/09/21 02:55:33;;;;;;;;;;;;;;;14.04;87.84;100199.23;107495;277;95423;-55
2023/09/21 02:58:15;;;;;;;;;;;;;;;14.02;87.90;100194.06;107475;277;95662;-55
2023/09/21 03:00:51;;;;;;;;;;;;;;;14.04;88.06;100194.42;107491;277;119384;-55
2023/09/21 03:03:30;;;;;;;;;;;;;;;14.04;88.02;100190.73;107521;277;105501;-56
2023/09/21 03:06:06;;;;;;;;;;;;;;;14.05;88.04;100191.03;107509;277;115166;-58
2023/09/21 03:08:49;;;;;;;;;;;;;;;14.08;87.98;100185.71;107568;277;96829;-57
2023/09/21 03:11:23;;;;;;;;;;;;;;;14.07;88.05;100187.76;107510;277;97478;-53
2023/09/21 03:13:55;;;;;;;;;;;;;;;14.11;88.18;100186.16;107611;277;120851;-54
2023/09/21 03:16:42;;;;;;;;;;;;;;;14.11;88.06;100180.46;107617;277;105718;-59
2023/09/21 03:19:19;;;;;;;;;;;;;;;14.13;88.11;100179.17;107924;277;112715;-59
2023/09/21 03:22:00;;;;;;;;;;;;;;;14.16;88.18;100177.64;107711;277;97013;-54
2023/09/21 03:24:39;;;;;;;;;;;;;;;14.18;88.04;100174.45;107509;277;97956;-54
2023/09/21 03:27:14;;;;;;;;;;;;;;;14.16;88.11;100173.00;107496;277;119429;-55
2023/09/21 03:29:54;;;;;;;;;;;;;;;14.23;88.30;100172.04;107477;277;104660;-56
2023/09/21 03:32:29;;;;;;;;;;;;;;;14.26;88.17;100171.80;107455;277;115948;-57
2023/09/21 03:35:06;;;;;;;;;;;;;;;14.27;88.08;100176.75;107424;277;99185;-57
2023/09/21 03:37:41;;;;;;;;;;;;;;;14.26;87.99;100172.98;107483;277;97482;-57
2023/09/21 03:40:12;;;;;;;;;;;;;;;14.27;88.02;100174.73;107415;277;120940;-58
2023/09/21 03:42:46;;;;;;;;;;;;;;;14.25;88.02;100171.56;107488;277;103078;-53
2023/09/21 03:45:20;;;;;;;;;;;;;;;14.28;87.81;100169.88;107475;277;114358;-54
2023/09/21 03:48:05;;;;;;;;;;;;;;;14.30;87.83;100177.44;107452;277;95328;-56
2023/09/21 03:51:04;;;;;;;;;;;;;;;14.30;87.85;100176.57;107514;277;98397;-57
2023/09/21 03:53:39;;;;;;;;;;;;;;;14.27;87.76;100171.55;107800;277;119473;-58
2023/09/21 03:56:16;;;;;;;;;;;;;;;14.22;87.88;100173.26;107760;277;105846;-58
2023/09/21 03:58:50;;;;;;;;;;;;;;;14.23;87.82;100173.92;107181;277;114393;-59
2023/09/21 04:01:25;;;;;;;;;;;;;;;14.24;87.84;100175.00;107644;277;96821;-55
2023/09/21 04:04:06;;;;;;;;;;;;;;;14.24;87.85;100166.85;107518;277;97976;-54
2023/09/21 04:06:43;;;;;;;;;;;;;;;14.23;87.74;100163.77;107539;277;119936;-55
2023/09/21 04:09:16;;;;;;;;;;;;;;;14.21;87.79;100162.77;107456;277;106211;-54
2023/09/21 04:11:51;;;;;;;;;;;;;;;14.20;87.76;100159.85;107530;277;114677;-56
2023/09/21 04:14:22;;;;;;;;;;;;;;;14.22;87.73;100164.36;107465;277;95678;-55
2023/09/21 04:16:56;;;;;;;;;;;;;;;14.22;87.68;100157.09;107629;277;97708;-60
2023/09/21 04:19:33;;;;;;;;;;;;;;;14.16;87.81;100156.02;107697;277;119979;-59
2023/09/21 04:22:12;;;;;;;;;;;;;;;14.16;87.98;100156.13;107633;277;104603;-55
2023/09/21 04:24:44;;;;;;;;;;;;;;;14.17;87.96;100155.23;107455;277;113646;-55
2023/09/21 04:27:19;;;;;;;;;;;;;;;14.18;87.92;100157.57;107554;277;95629;-58
2023/09/21 04:29:53;;;;;;;;;;;;;;;14.16;88.04;100154.62;107473;277;96467;-59
2023/09/21 04:32:28;;;;;;;;;;;;;;;14.16;87.99;100155.29;107466;277;122835;-58
2023/09/21 04:35:05;;;;;;;;;;;;;;;14.20;88.06;100152.58;107574;277;104653;-58
2023/09/21 04:37:38;;;;;;;;;;;;;;;14.24;88.04;100152.48;107520;277;114461;-56
2023/09/21 04:40:18;;;;;;;;;;;;;;;14.25;87.98;100152.27;107616;277;94894;-60
2023/09/21 04:42:52;;;;;;;;;;;;;;;14.25;87.88;100150.52;107582;277;96106;-55
2023/09/21 04:45:27;;;;;;;;;;;;;;;14.27;88.13;100152.53;107482;277;119061;-55
2023/09/21 04:48:03;;;;;;;;;;;;;;;14.33;87.89;100150.89;107521;277;105627;-53
2023/09/21 04:50:48;;;;;;;;;;;;;;;14.36;87.95;100146.20;107470;277;113839;-54
2023/09/21 04:53:21;;;;;;;;;;;;;;;14.40;88.05;100146.20;107443;277;97679;-54
2023/09/21 04:55:52;;;;;;;;;;;;;;;14.43;87.98;100145.97;107452;277;96110;-55
2023/09/21 04:58:28;;;;;;;;;;;;;;;14.48;87.93;100148.79;107458;277;119777;-56
2023/09/21 05:01:09;;;;;;;;;;;;;;;14.51;88.02;100147.91;107493;277;105060;-55
2023/09/21 05:03:42;;;;;;;;;;;;;;;14.58;87.97;100146.61;107422;277;113916;-55
2023/09/21 05:06:19;;;;;;;;;;;;;;;14.75;87.78;100146.89;107455;277;95846;-57
2023/09/21 05:08:49;;;;;;;;;;;;;;;14.94;87.54;100139.30;107455;277;97781;-56
2023/09/21 05:11:20;;;;;;;;;;;;;;;15.07;87.52;100142.95;107480;277;119874;-56
2023/09/21 05:13:58;;;;;;;;;;;;;;;15.31;87.43;100138.95;107465;277;104601;-56
2023/09/21 05:16:30;;;;;;;;;;;;;;;15.44;87.17;100144.39;107477;277;114797;-53
2023/09/21 05:19:00;;;;;;;;;;;;;;;15.50;87.00;100139.99;107449;277;95494;-54
2023/09/21 05:21:33;;;;;;;;;;;;;;;15.56;86.93;100142.89;107516;277;96664;-57
2023/09/21 05:24:05;;;;;;;;;;;;;;;15.62;86.63;100137.38;107472;277;120895;-57
2023/09/21 05:26:37;;;;;;;;;;;;;;;15.66;86.58;100141.59;107612;277;106063;-59
2023/09/21 05:29:09;;;;;;;;;;;;;;;15.70;86.52;100144.82;107718;277;112802;-57
2023/09/21 05:31:42;;;;;;;;;;;;;;;15.77;86.37;100142.46;107528;277;95934;-53
2023/09/21 05:34:16;;;;;;;;;;;;;;;15.84;86.25;100143.95;107521;277;96190;-53
2023/09/21 05:36:54;;;;;;;;;;;;;;;15.90;86.19;100143.83;108039;277;120205;-58
2023/09/21 05:39:42;;;;;;;;;;;;;;;16.05;86.05;100141.21;107460;277;102729;-54
2023/09/21 05:42:18;;;;;;;;;;;;;;;16.55;86.12;100131.92;107472;277;114003;-54
2023/09/21 05:44:57;;;;;;;;;;;;;;;18.51;85.81;100128.39;108673;277;95520;-55
2023/09/21 05:47:34;;;;;;;;;;;;;;;20.89;83.47;100125.57;108957;277;95521;-57
2023/09/21 05:50:22;;;;;;;;;;;;;;;22.41;81.07;100118.73;108992;277;118576;-57
2023/09/21 05:52:58;;;;;;;;;;;;;;;23.02;77.90;100118.87;107751;277;104087;-56
2023/09/21 05:55:31;;;;;;;;;;;;;;;23.15;75.80;100121.88;107515;277;113548;-56
2023/09/21 05:58:09;;;;;;;;;;;;;;;22.37;75.01;100124.34;107446;277;94138;-56
2023/09/21 06:00:41;;;;;;;;;;;;;;;21.42;74.42;100129.77;107450;277;97975;-56
2023/09/21 06:03:14;;;;;;;;;;;;;;;20.60;74.16;100134.22;107467;277;120402;-55
2023/09/21 06:05:55;;;;;;;;;;;;;;;20.06;74.71;100130.63;107504;277;106464;-57
2023/09/21 06:08:37;;;;;;;;;;;;;;;19.66;74.84;100136.40;107554;277;113738;-56
2023/09/21 06:11:13;;;;;;;;;;;;;;;19.42;74.92;100136.90;107494;277;94900;-57
2023/09/21 06:13:52;;;;;;;;;;;;;;;19.23;75.52;100134.81;107464;277;96635;-59
2023/09/21 06:16:32;;;;;;;;;;;;;;;19.17;75.59;100133.02;107537;277;119727;-55
2023/09/21 06:19:04;;;;;;;;;;;;;;;19.08;76.00;100140.73;107489;277;104207;-55
2023/09/21 06:21:41;;;;;;;;;;;;;;;19.05;76.28;100141.45;107492;277;114879;-54
2023/09/21 06:24:12;;;;;;;;;;;;;;;19.02;76.69;100139.22;107533;277;94854;-55
2023/09/21 06:26:44;;;;;;;;;;;;;;;19.06;76.85;100140.52;107531;277;97850;-53
2023/09/21 06:29:19;;;;;;;;;;;;;;;19.10;76.84;100141.19;107506;277;120920;-55
2023/09/21 06:31:54;;;;;;;;;;;;;;;19.24;76.80;100136.96;107494;277;105033;-58
2023/09/21 06:34:33;;;;;;;;;;;;;;;19.36;77.05;100133.79;107469;277;113944;-57
2023/09/21 06:37:03;;;;;;;;;;;;;;;19.38;76.79;100134.73;107474;277;96143;-56
2023/09/21 06:39:46;;;;;;;;;;;;;;;19.43;76.90;100134.52;107495;277;100182;-56
2023/09/21 06:42:22;;;;;;;;;;;;;;;19.49;76.70;100136.35;107512;277;119227;-59
2023/09/21 06:44:54;;;;;;;;;;;;;;;19.59;76.60;100133.70;107646;277;106050;-61
2023/09/21 06:47:30;;;;;;;;;;;;;;;19.81;76.80;100140.98;107571;277;114908;-60
2023/09/21 06:50:01;;;;;;;;;;;;;;;19.93;76.62;100141.45;107528;277;94116;-58
2023/09/21 06:52:38;;;;;;;;;;;;;;;20.00;76.34;100144.50;107554;277;98484;-58
2023/09/21 06:55:10;;;;;;;;;;;;;;;20.10;75.87;100142.96;107524;277;120695;-58
2023/09/21 06:57:39;;;;;;;;;;;;;;;20.15;75.75;100144.16;107554;277;104391;-54
2023/09/21 07:00:11;;;;;;;;;;;;;;;20.17;75.47;100141.52;107481;277;114011;-59
2023/09/21 07:02:46;;;;;;;;;;;;;;;20.28;75.25;100140.02;107481;277;94094;-59
2023/09/21 07:05:16;;;;;;;;;;;;;;;20.47;75.32;100138.50;107468;277;96419;-62
2023/09/21 07:07:54;;;;;;;;;;;;;;;20.71;75.09;100135.63;107492;277;119259;-60
2023/09/21 07:10:28;;;;;;;;;;;;;;;20.81;74.70;100133.47;107450;277;103640;-61
2023/09/21 07:13:07;;;;;;;;;;;;;;;20.84;74.12;100137.44;107461;277;114136;-61
2023/09/21 07:15:39;;;;;;;;;;;;;;;20.83;74.16;100138.19;107451;277;96330;-61
2023/09/21 07:18:18;;;;;;;;;;;;;;;20.87;73.96;100138.56;107469;277;98424;-57
2023/09/21 07:20:51;;;;;;;;;;;;;;;20.90;73.45;100138.59;107499;277;120642;-57
2023/09/21 07:23:24;;;;;;;;;;;;;;;20.93;73.22;100132.45;107469;277;105417;-57
2023/09/21 07:26:01;;;;;;;;;;;;;;;21.00;73.13;100132.94;107432;277;116146;-58
2023/09/21 07:28:39;;;;;;;;;;;;;;;21.10;73.04;100129.03;107413;277;94887;-58
2023/09/21 07:31:14;;;;;;;;;;;;;;;21.13;72.27;100127.58;107467;277;98715;-57
2023/09/21 07:33:56;;;;;;;;;;;;;;;21.15;72.75;100129.35;107451;277;120426;-58
2023/09/21 07:36:32;;;;;;;;;;;;;;;21.25;72.52;100125.84;107491;277;104429;-55
2023/09/21 07:39:08;;;;;;;;;;;;;;;21.33;72.18;100126.70;107524;277;113004;-55
2023/09/21 07:41:46;;;;;;;;;;;;;;;21.58;72.83;100125.30;107489;277;93818;-56
2023/09/21 07:44:16;;;;;;;;;;;;;;;22.32;72.46;100123.13;107524;277;97415;-56
2023/09/21 07:46:51;;;;;;;;;;;;;;;23.36;70.91;100120.42;107505;277;120758;-57
2023/09/21 07:49:27;;;;;;;;;;;;;;;24.03;70.22;100118.96;107510;277;105807;-56
2023/09/21 07:52:02;;;;;;;;;;;;;;;25.04;69.21;100114.45;107515;277;114564;-56
2023/09/21 07:54:38;;;;;;;;;;;;;;;26.71;67.75;100111.35;107535;277;94586;-56
2023/09/21 07:57:16;;;;;;;;;;;;;;;28.20;64.26;100109.92;107537;277;97454;-57
2023/09/21 07:59:52;;;;;;;;;;;;;;;29.55;62.59;100103.32;107528;277;120209;-56
2023/09/21 08:02:24;;;;;;;;;;;;;;;30.83;60.63;100097.72;107668;277;105583;-58
2023/09/21 08:04:56;;;;;;;;;;;;;;;31.76;57.85;100094.58;107665;277;113800;-60
2023/09/21 08:07:34;;;;;;;;;;;;;;;32.51;55.45;100097.80;107501;277;94056;-56
2023/09/21 08:10:05;;;;;;;;;;;;;;;32.85;54.31;100097.41;107448;277;97677;-56
2023/09/21 08:12:40;;;;;;;;;;;;;;;33.47;53.18;100088.02;107495;277;121543;-59
2023/09/21 08:15:19;;;;;;;;;;;;;;;33.90;51.46;100084.89;107448;277;105027;-57
2023/09/21 08:17:52;;;;;;;;;;;;;;;33.84;50.02;100086.27;107388;277;114850;-56
2023/09/21 08:20:24;;;;;;;;;;;;;;;33.29;48.81;100081.77;107474;277;94614;-56
2023/09/21 08:22:59;;;;;;;;;;;;;;;32.52;48.39;100082.39;107483;277;97870;-55
2023/09/21 08:25:33;;;;;;;;;;;;;;;32.08;47.92;100081.43;107460;277;120380;-55
2023/09/21 08:28:07;;;;;;;;;;;;;;;31.26;47.35;100083.65;107602;277;106520;-60
2023/09/21 08:30:41;;;;;;;;;;;;;;;30.73;48.13;100085.56;107585;277;114528;-59
2023/09/21 08:33:23;;;;;;;;;;;;;;;30.85;46.74;100086.96;107483;277;93929;-55
2023/09/21 08:36:02;;;;;;;;;;;;;;;31.38;47.14;100082.75;107538;277;97931;-55
2023/09/21 08:38:38;;;;;;;;;;;;;;;31.56;45.88;100073.86;107499;277;120252;-55
2023/09/21 08:41:11;;;;;;;;;;;;;;;31.50;45.59;100076.65;107544;277;105442;-57
2023/09/21 08:43:49;;;;;;;;;;;;;;;31.26;45.40;100078.73;107476;277;112396;-58
2023/09/21 08:46:26;;;;;;;;;;;;;;;31.41;45.78;100080.58;107547;277;93803;-54
2023/09/21 08:49:03;;;;;;;;;;;;;;;31.45;44.73;100078.03;107451;277;97265;-56
2023/09/21 08:51:39;;;;;;;;;;;;;;;31.54;44.32;100075.96;107520;277;120369;-55
2023/09/21 08:54:16;;;;;;;;;;;;;;;31.66;43.70;100074.02;107489;277;104827;-53
2023/09/21 08:56:47;;;;;;;;;;;;;;;31.27;42.99;100070.41;107465;277;113674;-58
2023/09/21 08:59:24;;;;;;;;;;;;;;;30.93;44.02;100069.95;107437;277;95403;-59
2023/09/21 09:02:04;;;;;;;;;;;;;;;30.82;44.44;100068.90;107537;277;97843;-61
2023/09/21 09:04:40;;;;;;;;;;;;;;;30.50;44.58;100069.06;107581;277;119980;-60
2023/09/21 09:07:13;;;;;;;;;;;;;;;30.17;45.42;100068.04;107544;277;104723;-56
2023/09/21 09:09:58;;;;;;;;;;;;;;;29.76;45.72;100066.73;107477;277;114845;-56
2023/09/21 09:12:32;;;;;;;;;;;;;;;29.53;46.24;100063.02;107489;277;95166;-56
2023/09/21 09:15:09;;;;;;;;;;;;;;;29.74;46.80;100064.36;107504;277;97093;-55
2023/09/21 09:17:44;;;;;;;;;;;;;;;29.95;46.90;100064.84;107484;277;119931;-58
2023/09/21 09:20:20;;;;;;;;;;;;;;;30.42;45.61;100064.52;107480;277;106444;-58
2023/09/21 09:23:00;;;;;;;;;;;;;;;30.72;46.08;100067.73;107497;277;113688;-58
2023/09/21 09:25:32;;;;;;;;;;;;;;;31.09;45.14;100063.38;107455;277;94568;-57
2023/09/21 09:28:07;;;;;;;;;;;;;;;31.35;44.69;100062.98;107498;277;97320;-57
2023/09/21 09:30:39;;;;;;;;;;;;;;;31.45;43.15;100067.23;107499;277;122914;-57
2023/09/21 09:33:15;;;;;;;;;;;;;;;31.28;43.03;100060.45;107505;277;105060;-54
2023/09/21 09:35:56;;;;;;;;;;;;;;;30.80;41.44;100057.83;107572;277;114956;-55
2023/09/21 09:38:32;;;;;;;;;;;;;;;30.25;43.22;100057.03;107550;277;93532;-56
2023/09/21 09:41:06;;;;;;;;;;;;;;;29.69;43.25;100049.31;107526;277;97832;-60
2023/09/21 09:43:50;;;;;;;;;;;;;;;29.31;44.50;100043.86;107685;277;121603;-61
2023/09/21 09:46:35;;;;;;;;;;;;;;;29.03;44.51;100049.99;107540;277;104741;-57
2023/09/21 09:49:11;;;;;;;;;;;;;;;28.70;45.22;100048.16;107491;277;115117;-58
2023/09/21 09:51:45;;;;;;;;;;;;;;;28.44;45.38;100048.77;107500;277;93157;-59
2023/09/21 09:54:21;;;;;;;;;;;;;;;28.03;45.47;100046.98;107570;277;96962;-60
2023/09/21 09:56:57;;;;;;;;;;;;;;;27.82;46.39;100042.75;107607;277;119597;-56
2023/09/21 09:59:35;;;;;;;;;;;;;;;27.74;47.02;100042.48;107542;277;105017;-55
2023/09/21 10:02:07;;;;;;;;;;;;;;;27.59;46.89;100036.80;107545;277;115550;-55
2023/09/21 10:04:40;;;;;;;;;;;;;;;27.44;47.11;100039.27;107523;277;92725;-57
2023/09/21 10:07:17;;;;;;;;;;;;;;;27.27;47.45;100034.23;107509;277;97147;-55
2023/09/21 10:09:57;;;;;;;;;;;;;;;27.05;47.65;100025.73;107443;277;120047;-56
2023/09/21 10:12:32;;;;;;;;;;;;;;;26.92;48.27;100025.50;107491;277;105302;-55
2023/09/21 10:15:13;;;;;;;;;;;;;;;26.83;48.45;100014.45;107454;277;113570;-55
2023/09/21 10:17:50;;;;;;;;;;;;;;;26.83;48.85;100011.45;107447;277;93002;-55
2023/09/21 10:20:27;;;;;;;;;;;;;;;26.80;48.75;100009.19;107451;277;96615;-56
2023/09/21 10:23:09;;;;;;;;;;;;;;;26.73;48.72;100004.07;107445;277;122935;-57
2023/09/21 10:25:41;;;;;;;;;;;;;;;26.74;49.02;100007.45;107449;277;104305;-55
2023/09/21 10:28:39;;;;;;;;;;;;;;;26.68;48.75;100003.96;107537;277;115308;-56
2023/09/21 10:31:23;;;;;;;;;;;;;;;26.67;49.35;99999.03;107507;277;94372;-54
2023/09/21 10:34:14;;;;;;;;;;;;;;;26.75;49.39;99994.12;107548;277;96691;-54
2023/09/21 10:36:49;;;;;;;;;;;;;;;26.74;49.18;99989.48;107512;277;120715;-55
2023/09/21 10:39:25;;;;;;;;;;;;;;;26.70;48.96;99989.13;107459;277;107053;-56
2023/09/21 10:42:18;;;;;;;;;;;;;;;26.60;48.96;99990.98;107527;277;114851;-60
2023/09/21 10:45:07;;;;;;;;;;;;;;;26.52;49.17;99993.95;107560;277;94883;-59
2023/09/21 10:47:45;;;;;;;;;;;;;;;26.52;49.26;99988.84;107565;277;96389;-58
2023/09/21 10:50:16;;;;;;;;;;;;;;;26.47;49.36;99989.36;107522;277;119861;-58
2023/09/21 10:52:51;;;;;;;;;;;;;;;26.53;49.49;99981.22;107556;277;105684;-60
2023/09/21 10:55:26;;;;;;;;;;;;;;;26.61;49.75;99969.52;107584;277;114197;-59
2023/09/21 10:58:00;;;;;;;;;;;;;;;26.66;49.68;99969.17;107472;277;93506;-54
2023/09/21 11:00:34;;;;;;;;;;;;;;;26.58;49.80;99961.36;107525;277;97947;-55
2023/09/21 11:03:05;;;;;;;;;;;;;;;26.58;49.92;99959.81;107598;277;121004;-55
2023/09/21 11:05:46;;;;;;;;;;;;;;;26.59;49.78;99958.83;107475;277;105151;-55
2023/09/21 11:08:27;;;;;;;;;;;;;;;26.56;49.28;99955.52;107543;277;114861;-56
2023/09/21 11:11:08;;;;;;;;;;;;;;;26.54;49.47;99952.06;107456;277;94824;-56
2023/09/21 11:13:42;;;;;;;;;;;;;;;26.57;50.00;99950.22;107464;277;97628;-55
2023/09/21 11:16:15;;;;;;;;;;;;;;;26.58;50.08;99952.77;107459;277;121866;-55
2023/09/21 11:18:51;;;;;;;;;;;;;;;26.59;49.70;99950.59;107510;277;105101;-60
2023/09/21 11:21:28;;;;;;;;;;;;;;;26.61;49.83;99948.16;107519;277;113075;-56
2023/09/21 11:24:06;;;;;;;;;;;;;;;26.63;50.02;99947.45;107459;277;94309;-56
2023/09/21 11:26:54;;;;;;;;;;;;;;;26.61;49.71;99945.94;107561;277;95774;-59
2023/09/21 11:29:29;;;;;;;;;;;;;;;26.57;49.70;99942.60;107547;277;120279;-60
2023/09/21 11:32:03;;;;;;;;;;;;;;;26.57;49.96;99941.98;107591;277;104042;-55
2023/09/21 11:34:39;;;;;;;;;;;;;;;26.60;50.21;99935.70;107470;277;115082;-56
2023/09/21 11:37:16;;;;;;;;;;;;;;;26.63;50.21;99935.42;107542;277;94371;-55
2023/09/21 11:39:55;;;;;;;;;;;;;;;26.63;50.24;99929.16;107522;277;97485;-54
2023/09/21 11:42:37;;;;;;;;;;;;;;;26.62;50.17;99927.80;107448;277;121428;-57
2023/09/21 11:45:17;;;;;;;;;;;;;;;26.55;49.64;99918.08;107540;277;104454;-58
2023/09/21 11:47:55;;;;;;;;;;;;;;;26.51;49.92;99922.82;107562;277;113672;-54
2023/09/21 11:50:35;;;;;;;;;;;;;;;26.44;49.98;99915.90;107471;277;94956;-57
2023/09/21 11:53:13;;;;;;;;;;;;;;;26.40;49.96;99911.88;107546;277;96499;-56
2023/09/21 11:55:50;;;;;;;;;;;;;;;26.36;50.19;99904.52;107469;277;119225;-55
2023/09/21 11:58:23;;;;;;;;;;;;;;;26.40;50.59;99901.07;107174;277;467975;-58
2023/09/21 12:01:15;;;;;;;;;;;;;;;26.46;50.64;99898.23;107512;277;114393;-57
2023/09/21 12:03:53;;;;;;;;;;;;;;;26.45;49.97;99898.31;107571;277;92952;-58
2023/09/21 12:06:28;;;;;;;;;;;;;;;26.41;49.98;99893.24;107557;277;96845;-56
2023/09/21 12:09:00;;;;;;;;;;;;;;;26.42;50.46;99891.96;107465;277;120534;-55
2023/09/21 12:11:31;;;;;;;;;;;;;;;26.43;50.55;99891.70;107549;277;106084;-60
2023/09/21 12:14:12;;;;;;;;;;;;;;;26.41;50.57;99887.48;107542;277;115383;-61
2023/09/21 12:16:54;;;;;;;;;;;;;;;26.36;50.57;99889.34;107538;277;93955;-55
2023/09/21 12:19:36;;;;;;;;;;;;;;;26.35;50.58;99890.02;107443;277;97205;-55
2023/09/21 12:22:12;;;;;;;;;;;;;;;26.30;50.65;99885.30;107528;277;119225;-56
2023/09/21 12:24:44;;;;;;;;;;;;;;;26.26;50.20;99883.98;107526;277;104545;-56
2023/09/21 12:27:20;;;;;;;;;;;;;;;26.19;50.36;99883.13;107520;277;113440;-54
2023/09/21 12:29:52;;;;;;;;;;;;;;;26.16;50.66;99881.52;107478;277;93316;-53
2023/09/21 12:32:27;;;;;;;;;;;;;;;26.18;50.85;99881.09;107523;277;97839;-54
2023/09/21 12:35:07;;;;;;;;;;;;;;;26.15;50.70;99882.42;107495;277;120284;-56
2023/09/21 12:37:45;;;;;;;;;;;;;;;26.13;50.50;99877.16;107530;277;105877;-55
2023/09/21 12:40:18;;;;;;;;;;;;;;;26.13;50.71;99874.52;107426;277;114762;-56
2023/09/21 12:42:49;;;;;;;;;;;;;;;26.12;50.48;99869.83;107595;277;95511;-60
2023/09/21 12:45:23;;;;;;;;;;;;;;;26.11;50.74;99871.89;107506;277;97220;-59
2023/09/21 12:47:58;;;;;;;;;;;;;;;26.14;51.01;99867.44;107474;277;120118;-54
2023/09/21 12:50:28;;;;;;;;;;;;;;;26.15;51.22;99866.73;107471;277;106173;-54
2023/09/21 12:53:05;;;;;;;;;;;;;;;26.14;51.21;99864.10;107585;277;114213;-60
2023/09/21 12:55:36;;;;;;;;;;;;;;;26.10;50.99;99858.88;107574;277;92654;-60
2023/09/21 12:58:16;;;;;;;;;;;;;;;26.08;51.08;99853.45;107627;277;97320;-60
2023/09/21 13:00:51;;;;;;;;;;;;;;;26.06;50.58;99852.93;107545;277;120017;-60
2023/09/21 13:03:23;;;;;;;;;;;;;;;26.03;50.96;99848.60;107595;277;103177;-60
2023/09/21 13:05:58;;;;;;;;;;;;;;;26.05;50.93;99848.45;107585;277;114370;-57
2023/09/21 13:08:36;;;;;;;;;;;;;;;26.06;50.67;99848.34;107491;277;95314;-56
2023/09/21 13:11:18;;;;;;;;;;;;;;;26.00;50.29;99847.66;107475;277;96587;-57
2023/09/21 13:13:54;;;;;;;;;;;;;;;25.99;50.10;99848.23;107439;277;119840;-58
2023/09/21 13:16:27;;;;;;;;;;;;;;;25.97;49.83;99845.73;107449;277;105631;-61
2023/09/21 13:19:00;;;;;;;;;;;;;;;25.94;49.49;99844.45;107408;277;114710;-62